createdAt,value
2023-02-18T00:16:09.909Z,100771.31
2023-02-18T00:20:11.914Z,100776.98
2023-02-18T00:24:20.813Z,100775.27
2023-02-18T00:44:29.321Z,100777.77
2023-02-18T00:48:38.392Z,100787.69
2023-02-18T00:52:47.414Z,100781.08
2023-02-18T00:56:56.437Z,100797.23
2023-02-18T01:01:07.283Z,100801.73
2023-02-18T01:05:17.624Z,100804.56
2023-02-18T01:26:25.328Z,100802.76
2023-02-18T01:30:34.362Z,100811.95
2023-02-18T01:34:43.321Z,100819.16
2023-02-18T02:00:04.516Z,100815.10
2023-02-18T02:04:13.507Z,100819.66
2023-02-18T02:28:59.834Z,100829.95
2023-02-18T02:32:58.522Z,100826.45
2023-02-18T02:37:07.479Z,100828.66
2023-02-18T02:41:16.312Z,100821.88
2023-02-18T03:01:29.002Z,100828.11
2023-02-18T03:05:40.586Z,100835.54
2023-02-18T03:10:01.512Z,100839.80
2023-02-18T03:14:09.653Z,100832.96
2023-02-18T03:30:11.369Z,100847.14
2023-02-18T03:34:20.261Z,100852.45
2023-02-18T03:38:32.262Z,100858.14
2023-02-18T03:42:41.187Z,100853.62
2023-02-18T03:46:51.348Z,100852.48
2023-02-18T04:02:42.249Z,100840.66
2023-02-18T04:06:51.176Z,100853.30
2023-02-18T04:11:00.107Z,100858.81
2023-02-18T04:15:10.188Z,100856.94
2023-02-18T04:19:23.540Z,100865.09
2023-02-18T04:40:34.112Z,100885.98
2023-02-18T04:44:42.925Z,100892.16
2023-02-18T05:01:29.722Z,100916.07
2023-02-18T05:05:38.710Z,100919.03
2023-02-18T05:09:47.798Z,100923.02
2023-02-18T05:33:01.598Z,100936.55
2023-02-18T05:37:07.855Z,100943.17
2023-02-18T05:41:16.601Z,100943.91
2023-02-18T06:01:17.486Z,100959.37
2023-02-18T06:05:26.348Z,100961.52
2023-02-18T06:09:35.217Z,100966.02
2023-02-18T06:17:10.765Z,100948.63
2023-02-18T06:21:19.680Z,100962.05
2023-02-18T06:25:28.671Z,100967.63
2023-02-18T06:29:30.422Z,100969.98
2023-02-18T06:45:29.055Z,100960.85
2023-02-18T06:49:37.950Z,100962.07
2023-02-18T06:53:47.018Z,100966.54
2023-02-18T07:01:31.704Z,100951.75
2023-02-18T07:05:33.359Z,100961.52
2023-02-18T07:09:41.984Z,100962.04
2023-02-18T07:25:22.887Z,100981.39
2023-02-18T07:29:32.446Z,100984.19
2023-02-18T07:33:41.691Z,100980.04
2023-02-18T07:37:51.532Z,100977.17
2023-02-18T07:53:50.041Z,100981.86
2023-02-18T07:57:58.959Z,100981.59
2023-02-18T08:02:08.401Z,100976.46
2023-02-18T08:21:53.388Z,100969.70
2023-02-18T08:26:02.164Z,100971.70
2023-02-18T08:30:11.056Z,100970.04
2023-02-18T08:34:21.334Z,100960.59
2023-02-18T08:54:20.946Z,100941.15
2023-02-18T08:58:31.088Z,100951.83
2023-02-18T09:02:40.085Z,100947.98
2023-02-18T09:22:20.297Z,100927.41
2023-02-18T09:26:29.461Z,100915.73
2023-02-18T09:30:39.396Z,100906.25
2023-02-18T09:34:48.779Z,100895.34
2023-02-18T09:59:02.420Z,100900.02
2023-02-18T10:02:52.222Z,100900.16
2023-02-18T10:07:00.594Z,100892.95
2023-02-18T10:23:01.845Z,100852.48
2023-02-18T10:26:52.966Z,100857.05
2023-02-18T10:31:05.230Z,100853.05
2023-02-18T10:35:15.815Z,100845.64
2023-02-18T10:51:28.808Z,100799.52
2023-02-18T10:55:40.374Z,100804.39
2023-02-18T10:59:51.801Z,100798.86
2023-02-18T11:16:54.722Z,100797.21
2023-02-18T11:21:03.190Z,100793.49
2023-02-18T11:25:13.171Z,100786.92
2023-02-18T11:41:14.954Z,100770.75
2023-02-18T11:45:23.926Z,100761.31
2023-02-18T11:49:32.784Z,100750.38
2023-02-18T12:09:44.516Z,100744.50
2023-02-18T12:14:02.341Z,100741.77
2023-02-18T12:18:11.713Z,100732.11
2023-02-18T12:22:24.458Z,100719.11
2023-02-18T12:38:58.544Z,100714.59
2023-02-18T12:43:10.809Z,100713.68
2023-02-18T12:47:23.133Z,100703.42
2023-02-18T12:51:32.378Z,100697.90
2023-02-18T12:55:40.374Z,100690.42
2023-02-18T13:11:50.384Z,100666.95
2023-02-18T13:16:00.647Z,100665.30
2023-02-18T13:20:12.603Z,100656.75
2023-02-18T13:24:24.093Z,100658.16
2023-02-18T13:40:28.686Z,100667.91
2023-02-18T13:44:37.670Z,100665.00
2023-02-18T13:48:46.585Z,100659.64
2023-02-18T13:52:47.026Z,100664.67
2023-02-18T13:56:56.911Z,100651.80
2023-02-18T14:16:59.004Z,100621.52
2023-02-18T14:23:16.644Z,100606.61
2023-02-18T14:27:14.440Z,100623.73
2023-02-18T14:31:47.901Z,100632.57
2023-02-18T14:36:34.971Z,100639.06
2023-02-18T14:41:09.438Z,100631.23
2023-02-18T14:45:41.292Z,100635.17
2023-02-18T14:50:25.974Z,100635.06
2023-02-18T14:54:39.247Z,100635.23
2023-02-18T14:59:04.146Z,100635.32
2023-02-18T15:03:33.466Z,100626.79
2023-02-18T15:08:03.869Z,100624.51
2023-02-18T15:12:35.155Z,100619.83
2023-02-18T15:20:36.020Z,100624.35
2023-02-18T15:24:58.002Z,100641.14
2023-02-18T15:28:33.552Z,100650.08
2023-02-18T15:32:47.437Z,100650.58
2023-02-18T15:37:06.969Z,100649.13
2023-02-18T15:41:37.027Z,100649.26
2023-02-18T15:46:08.807Z,100673.45
2023-02-18T15:50:10.994Z,100673.31
2023-02-18T15:54:32.139Z,100673.33
2023-02-18T15:58:55.174Z,100692.86
2023-02-18T16:15:55.146Z,100699.09
2023-02-18T16:19:40.725Z,100694.46
2023-02-18T16:23:35.381Z,100719.88
2023-02-18T16:33:00.421Z,100740.88
2023-02-18T16:37:28.192Z,100757.77
2023-02-18T16:41:38.593Z,100758.27
2023-02-18T16:45:21.828Z,100755.09
2023-02-18T16:49:30.128Z,100755.95
2023-02-18T16:53:35.303Z,100763.27
2023-02-18T16:58:05.824Z,100761.77
2023-02-18T17:14:36.329Z,100811.13
2023-02-18T17:18:51.302Z,100814.00
2023-02-18T17:23:01.833Z,100815.38
2023-02-18T17:27:32.576Z,100824.73
2023-02-18T17:35:58.440Z,100833.16
2023-02-18T17:39:43.425Z,100850.02
2023-02-18T17:44:06.674Z,100849.14
2023-02-18T17:48:36.464Z,100858.73
2023-02-18T17:52:49.280Z,100852.34
2023-02-18T17:57:18.068Z,100862.73
2023-02-18T18:01:28.212Z,100872.64
2023-02-18T18:05:53.535Z,100896.95
2023-02-18T18:10:16.367Z,100905.52
2023-02-18T18:14:37.757Z,100893.29
2023-02-18T18:19:05.430Z,100899.27
2023-02-18T18:23:07.473Z,100912.20
2023-02-18T20:05:50.002Z,101035.03
2023-02-18T20:10:19.403Z,101048.71
2023-02-18T20:14:48.670Z,101046.61
2023-02-18T20:19:18.089Z,101037.67
2023-02-18T20:23:47.569Z,101037.35
2023-02-18T20:28:17.090Z,101043.80
2023-02-18T20:32:19.212Z,101049.70
2023-02-18T20:36:49.299Z,101052.98
2023-02-18T20:41:12.002Z,101061.55
2023-02-18T20:49:27.857Z,101053.24
2023-02-18T20:53:46.286Z,101060.48
2023-02-18T20:58:15.928Z,101062.88
2023-02-18T21:02:36.682Z,101066.05
2023-02-18T21:35:55.556Z,101090.34
2023-02-18T21:40:16.624Z,101091.21
2023-02-18T21:44:48.231Z,101090.05
2023-02-18T21:49:23.261Z,101084.39
2023-02-18T21:53:43.464Z,101075.76
2023-02-18T21:58:16.523Z,101078.99
2023-02-18T22:02:36.181Z,101073.89
2023-02-18T22:06:20.200Z,101068.88
2023-02-18T22:10:49.820Z,101067.14
2023-02-18T22:15:09.359Z,101072.05
2023-02-18T22:19:28.348Z,101076.86
2023-02-18T22:27:34.943Z,101087.30
2023-02-18T22:31:53.680Z,101091.44
2023-02-18T22:36:03.142Z,101099.27
2023-02-18T22:53:49.028Z,101112.10
2023-02-18T23:11:25.956Z,101112.89
2023-02-18T23:20:24.648Z,101112.11
2023-02-18T23:24:55.358Z,101112.92
2023-02-18T23:33:22.443Z,101109.35
2023-02-18T23:37:50.392Z,101107.44
2023-02-18T23:55:01.666Z,101110.16
2023-02-18T23:59:02.354Z,101106.48
